createdAt,value
2018-10-18T00:00:24.203Z,13.83
2018-10-18T00:02:28.341Z,14.40
2018-10-18T00:04:32.517Z,13.97
2018-10-18T00:06:40.056Z,14.87
2018-10-18T00:08:45.249Z,12.37
2018-10-18T00:10:49.355Z,12.87
2018-10-18T00:12:53.886Z,12.23
2018-10-18T00:14:58.363Z,12.37
2018-10-18T00:17:08.380Z,12.83
2018-10-18T00:19:18.725Z,12.50
2018-10-18T00:21:37.666Z,12.60
2018-10-18T00:23:46.037Z,12.40
2018-10-18T00:25:51.750Z,11.97
2018-10-18T00:28:08.352Z,11.80
2018-10-18T00:30:24.399Z,12.00
2018-10-18T00:34:41.328Z,12.53
2018-10-18T00:36:48.649Z,11.87
2018-10-18T00:38:55.526Z,11.57
2018-10-18T00:41:02.394Z,11.90
2018-10-18T00:43:07.127Z,12.83
2018-10-18T00:45:13.402Z,12.77
2018-10-18T00:47:17.733Z,12.53
2018-10-18T00:49:22.697Z,14.37
2018-10-18T00:51:26.991Z,13.90
2018-10-18T00:53:31.558Z,13.93
2018-10-18T00:55:38.866Z,14.73
2018-10-18T00:57:44.103Z,14.63
2018-10-18T00:59:49.389Z,14.47
2018-10-18T01:01:55.288Z,14.67
2018-10-18T01:03:59.945Z,14.87
2018-10-18T01:06:05.026Z,14.27
2018-10-18T01:08:09.688Z,13.20
2018-10-18T01:10:14.331Z,13.20
2018-10-18T01:12:18.699Z,14.03
2018-10-18T01:14:23.746Z,13.93
2018-10-18T01:16:29.452Z,14.73
2018-10-18T01:18:40.816Z,14.23
2018-10-18T01:20:45.607Z,14.60
2018-10-18T01:22:51.295Z,14.17
2018-10-18T01:24:55.622Z,14.67
2018-10-18T01:27:00.413Z,14.53
2018-10-18T01:29:15.756Z,15.00
2018-10-18T01:31:36.477Z,13.70
2018-10-18T01:33:58.273Z,14.80
2018-10-18T01:36:04.989Z,14.23
2018-10-18T01:38:17.468Z,14.50
2018-10-18T01:40:37.272Z,14.67
2018-10-18T01:42:43.990Z,15.10
2018-10-18T01:44:56.500Z,15.17
2018-10-18T01:47:03.023Z,15.63
2018-10-18T01:49:12.470Z,16.63
2018-10-18T01:51:24.962Z,15.07
2018-10-18T01:53:29.891Z,16.07
2018-10-18T01:55:38.429Z,15.50
2018-10-18T01:57:52.485Z,16.20
2018-10-18T02:00:14.562Z,15.13
2018-10-18T02:02:32.134Z,15.40
2018-10-18T02:04:40.035Z,14.90
2018-10-18T02:06:49.622Z,15.53
2018-10-18T02:08:59.786Z,15.53
2018-10-18T02:11:05.488Z,16.00
2018-10-18T02:13:13.813Z,15.77
2018-10-18T02:15:22.720Z,16.10
2018-10-18T02:17:34.942Z,16.40
2018-10-18T02:19:43.980Z,15.60
2018-10-18T02:21:53.563Z,15.30
2018-10-18T02:24:02.858Z,15.17
2018-10-18T02:26:12.832Z,15.90
2018-10-18T02:28:20.025Z,15.47
2018-10-18T02:30:31.617Z,15.97
2018-10-18T02:32:52.399Z,14.90
2018-10-18T02:38:02.523Z,16.43
2018-10-18T02:40:06.968Z,16.50
2018-10-18T02:42:11.185Z,16.33
2018-10-18T02:44:15.599Z,14.93
2018-10-18T02:46:19.698Z,15.67
2018-10-18T02:48:24.119Z,16.50
2018-10-18T02:50:28.661Z,16.43
2018-10-18T02:52:33.009Z,16.47
2018-10-18T02:54:37.240Z,15.80
2018-10-18T02:56:41.457Z,15.23
2018-10-18T02:58:46.079Z,15.73
2018-10-18T03:00:50.404Z,15.77
2018-10-18T03:02:55.100Z,16.33
2018-10-18T03:04:59.226Z,17.27
2018-10-18T03:07:03.345Z,15.17
2018-10-18T03:09:10.186Z,16.47
2018-10-18T03:11:14.279Z,15.60
2018-10-18T03:13:18.528Z,15.47
2018-10-18T03:15:26.632Z,16.30
2018-10-18T03:17:30.925Z,16.47
2018-10-18T03:19:35.530Z,17.47
2018-10-18T03:21:39.709Z,15.47
2018-10-18T03:23:43.809Z,15.63
2018-10-18T03:25:47.979Z,16.47
2018-10-18T03:27:55.715Z,15.20
2018-10-18T03:29:59.996Z,15.57
2018-10-18T03:32:04.273Z,15.27
2018-10-18T03:34:08.881Z,15.27
2018-10-18T03:36:14.216Z,13.60
2018-10-18T03:38:20.239Z,14.47
2018-10-18T03:40:29.327Z,14.50
2018-10-18T03:42:38.577Z,13.97
2018-10-18T03:44:43.449Z,14.43
2018-10-18T03:46:47.543Z,14.70
2018-10-18T03:48:52.200Z,15.67
2018-10-18T03:50:57.264Z,15.27
2018-10-18T03:53:02.249Z,15.10
2018-10-18T03:55:07.718Z,14.50
2018-10-18T03:57:11.759Z,13.90
2018-10-18T03:59:15.854Z,14.13
2018-10-18T04:01:20.072Z,14.73
2018-10-18T04:03:24.102Z,14.57
2018-10-18T04:05:28.153Z,13.37
2018-10-18T04:07:32.713Z,14.63
2018-10-18T04:09:36.931Z,14.60
2018-10-18T04:11:41.475Z,13.97
2018-10-18T04:13:45.900Z,15.67
2018-10-18T04:15:49.932Z,16.10
2018-10-18T04:17:54.577Z,17.23
2018-10-18T04:20:00.444Z,16.30
2018-10-18T04:22:04.492Z,16.10
2018-10-18T04:24:08.592Z,16.30
2018-10-18T04:26:13.009Z,17.23
2018-10-18T04:28:17.093Z,18.97
2018-10-18T04:30:21.984Z,18.70
2018-10-18T04:32:26.780Z,18.47
2018-10-18T04:34:30.847Z,20.10
2018-10-18T04:36:34.903Z,18.90
2018-10-18T04:38:40.205Z,17.93
2018-10-18T04:40:44.301Z,20.10
2018-10-18T04:42:48.411Z,19.73
2018-10-18T04:44:53.961Z,19.30
2018-10-18T04:47:01.029Z,19.67
2018-10-18T04:49:05.516Z,19.80
2018-10-18T04:51:10.542Z,20.47
2018-10-18T04:53:21.577Z,17.97
2018-10-18T04:55:28.514Z,19.27
2018-10-18T04:57:39.011Z,20.47
2018-10-18T04:59:43.205Z,23.73
2018-10-18T05:01:48.252Z,24.47
2018-10-18T05:03:52.746Z,22.83
2018-10-18T05:06:02.576Z,21.77
2018-10-18T05:08:07.090Z,21.43
2018-10-18T05:10:13.476Z,21.47
2018-10-18T05:12:21.619Z,20.90
2018-10-18T05:14:25.731Z,21.50
2018-10-18T05:16:30.387Z,21.60
2018-10-18T05:18:35.844Z,20.87
2018-10-18T05:20:42.926Z,21.43
2018-10-18T05:22:47.912Z,22.10
2018-10-18T05:24:53.160Z,21.13
2018-10-18T05:26:57.842Z,20.83
2018-10-18T05:29:03.602Z,21.90
2018-10-18T05:31:07.916Z,20.47
2018-10-18T05:33:12.733Z,22.00
2018-10-18T05:35:23.238Z,21.07
2018-10-18T05:37:29.427Z,21.20
2018-10-18T05:39:35.428Z,20.70
2018-10-18T05:41:49.819Z,20.23
2018-10-18T05:44:03.697Z,20.50
2018-10-18T05:46:10.074Z,19.07
2018-10-18T05:48:19.429Z,20.00
2018-10-18T05:50:25.579Z,18.37
2018-10-18T05:52:29.738Z,18.40
2018-10-18T05:54:35.972Z,18.17
2018-10-18T05:56:41.903Z,18.40
2018-10-18T05:58:47.414Z,17.50
2018-10-18T06:00:54.044Z,17.60
2018-10-18T06:02:59.813Z,17.30
2018-10-18T06:05:05.410Z,18.40
2018-10-18T06:07:09.644Z,17.60
2018-10-18T06:09:24.198Z,19.80
2018-10-18T06:11:34.006Z,18.20
2018-10-18T06:16:23.892Z,18.03
2018-10-18T06:18:30.105Z,17.63
2018-10-18T06:20:37.211Z,19.23
2018-10-18T06:22:43.059Z,18.33
2018-10-18T06:24:49.746Z,19.10
2018-10-18T06:26:55.044Z,18.67
2018-10-18T06:28:59.422Z,18.23
2018-10-18T06:31:08.425Z,19.60
2018-10-18T06:33:14.182Z,19.03
2018-10-18T06:35:22.464Z,19.80
2018-10-18T06:37:27.813Z,18.73
2018-10-18T06:39:34.484Z,18.77
2018-10-18T06:41:40.239Z,18.67
2018-10-18T06:43:46.553Z,20.07
2018-10-18T06:45:52.211Z,18.77
2018-10-18T06:47:57.331Z,19.47
2018-10-18T06:50:05.267Z,19.57
2018-10-18T06:52:15.175Z,19.77
2018-10-18T06:54:24.884Z,20.93
2018-10-18T06:56:29.516Z,21.47
2018-10-18T06:58:35.448Z,21.10
2018-10-18T07:00:39.905Z,22.03
2018-10-18T07:02:45.586Z,22.47
2018-10-18T07:04:52.639Z,22.83
2018-10-18T07:06:56.689Z,23.33
2018-10-18T07:09:02.197Z,25.43
2018-10-18T07:11:08.556Z,25.67
2018-10-18T07:13:14.023Z,27.60
2018-10-18T07:15:21.876Z,28.33
2018-10-18T07:17:26.982Z,32.63
2018-10-18T07:19:31.866Z,35.77
2018-10-18T07:21:36.478Z,37.30
2018-10-18T07:23:43.086Z,38.43
2018-10-18T07:25:51.719Z,39.50
2018-10-18T07:30:29.171Z,36.57
2018-10-18T07:32:33.261Z,41.53
2018-10-18T07:34:38.247Z,44.97
2018-10-18T07:36:49.090Z,45.43
2018-10-18T07:38:53.555Z,46.57
2018-10-18T07:40:58.442Z,45.73
2018-10-18T07:43:04.756Z,46.10
2018-10-18T07:45:11.813Z,49.93
2018-10-18T07:47:16.808Z,50.10
2018-10-18T07:49:21.006Z,50.93
2018-10-18T07:51:32.639Z,52.63
2018-10-18T07:53:37.046Z,54.53
2018-10-18T07:55:41.570Z,56.37
2018-10-18T07:57:45.645Z,54.07
2018-10-18T07:59:51.705Z,54.87
2018-10-18T08:02:02.673Z,56.67
2018-10-18T08:04:07.085Z,55.03
2018-10-18T08:06:13.187Z,54.87
2018-10-18T08:08:32.301Z,49.63
2018-10-18T08:10:37.407Z,55.07
2018-10-18T08:12:44.283Z,55.20
2018-10-18T08:14:50.734Z,55.97
2018-10-18T08:16:57.869Z,54.73
2018-10-18T08:19:05.009Z,55.57
2018-10-18T08:21:10.326Z,55.53
2018-10-18T08:23:15.071Z,56.03
2018-10-18T08:25:24.532Z,56.13
2018-10-18T08:27:31.691Z,57.10
2018-10-18T08:29:39.620Z,58.23
2018-10-18T08:31:45.373Z,56.27
2018-10-18T08:33:55.800Z,58.27
2018-10-18T08:36:04.076Z,57.17
2018-10-18T08:38:09.899Z,54.43
2018-10-18T08:40:16.902Z,57.33
2018-10-18T08:42:26.490Z,58.00
2018-10-18T08:44:31.594Z,56.43
2018-10-18T08:46:38.571Z,59.40
2018-10-18T08:48:48.480Z,52.97
2018-10-18T08:50:52.650Z,55.40
2018-10-18T08:52:58.928Z,56.67
2018-10-18T08:55:05.053Z,54.80
2018-10-18T08:57:10.438Z,56.23
2018-10-18T08:59:24.568Z,55.97
2018-10-18T09:01:30.592Z,52.27
2018-10-18T09:03:37.392Z,54.23
2018-10-18T09:05:48.669Z,50.87
2018-10-18T09:07:53.342Z,49.57
2018-10-18T09:12:22.464Z,47.33
2018-10-18T09:16:28.421Z,47.53
2018-10-18T09:18:32.737Z,47.73
2018-10-18T09:20:37.504Z,44.33
2018-10-18T09:22:42.248Z,45.80
2018-10-18T09:24:47.212Z,42.23
2018-10-18T09:26:53.193Z,43.10
2018-10-18T09:28:58.678Z,39.47
2018-10-18T09:31:04.408Z,40.90
2018-10-18T09:33:12.649Z,42.07
2018-10-18T09:35:24.388Z,38.13
2018-10-18T09:37:29.577Z,36.33
2018-10-18T09:39:33.692Z,35.63
2018-10-18T09:41:37.986Z,36.47
2018-10-18T09:43:46.232Z,36.10
2018-10-18T09:45:50.571Z,36.83
2018-10-18T09:47:57.215Z,36.03
2018-10-18T09:50:01.479Z,36.60
2018-10-18T09:52:08.832Z,38.07
2018-10-18T09:54:13.962Z,36.67
2018-10-18T09:56:18.174Z,38.10
2018-10-18T09:58:23.757Z,36.90
2018-10-18T10:00:34.234Z,37.97
2018-10-18T10:02:43.619Z,38.97
2018-10-18T10:04:52.289Z,38.23
2018-10-18T10:06:57.727Z,35.43
2018-10-18T10:09:04.400Z,38.00
2018-10-18T10:11:08.940Z,38.63
2018-10-18T10:13:13.353Z,38.27
2018-10-18T10:17:29.616Z,37.57
2018-10-18T10:19:37.697Z,38.07
2018-10-18T10:21:42.158Z,39.40
2018-10-18T10:23:47.290Z,37.60
2018-10-18T10:25:53.846Z,35.40
2018-10-18T10:27:59.031Z,39.37
2018-10-18T10:30:05.037Z,34.77
2018-10-18T10:32:10.665Z,36.33
2018-10-18T10:34:15.217Z,35.93
2018-10-18T10:36:22.586Z,36.37
2018-10-18T10:38:27.074Z,37.17
2018-10-18T10:40:31.432Z,36.83
2018-10-18T10:42:36.101Z,37.07
2018-10-18T10:44:40.398Z,35.67
2018-10-18T10:46:44.685Z,37.90
2018-10-18T10:48:50.048Z,39.27
2018-10-18T10:50:56.598Z,37.33
2018-10-18T10:53:00.992Z,37.37
2018-10-18T10:55:11.090Z,35.53
2018-10-18T10:57:15.725Z,39.27
2018-10-18T10:59:21.059Z,34.57
2018-10-18T11:01:29.628Z,35.63
2018-10-18T11:03:47.086Z,36.63
2018-10-18T11:05:51.535Z,36.43
2018-10-18T11:07:56.431Z,36.60
2018-10-18T11:10:02.630Z,36.43
2018-10-18T11:12:09.102Z,35.33
2018-10-18T11:14:13.670Z,36.43
2018-10-18T11:16:19.920Z,34.50
2018-10-18T11:18:24.690Z,35.80
2018-10-18T11:20:59.753Z,33.97
2018-10-18T11:23:04.509Z,34.33
2018-10-18T11:25:11.117Z,33.07
2018-10-18T11:27:19.268Z,34.97
2018-10-18T11:29:24.268Z,35.00
2018-10-18T11:31:38.366Z,32.83
2018-10-18T11:33:42.986Z,32.57
2018-10-18T11:35:47.269Z,32.43
2018-10-18T11:37:51.834Z,33.93
2018-10-18T11:39:56.577Z,31.60
2018-10-18T11:42:02.958Z,30.73
2018-10-18T11:44:07.446Z,34.27
2018-10-18T11:46:12.311Z,30.63
2018-10-18T11:48:18.885Z,30.87
2018-10-18T11:50:28.835Z,31.80
2018-10-18T11:52:36.392Z,31.03
2018-10-18T11:54:41.444Z,30.53
2018-10-18T11:56:45.716Z,30.23
2018-10-18T11:58:50.635Z,28.70
2018-10-18T12:00:55.778Z,29.93
2018-10-18T12:03:01.264Z,30.80
2018-10-18T12:05:08.388Z,27.77
2018-10-18T12:07:12.929Z,30.00
2018-10-18T12:09:18.333Z,28.70
2018-10-18T12:11:25.275Z,30.23
2018-10-18T12:13:31.222Z,29.20
2018-10-18T12:15:36.791Z,29.87
2018-10-18T12:17:41.924Z,28.97
2018-10-18T12:19:46.134Z,31.00
2018-10-18T12:21:52.247Z,29.03
2018-10-18T12:23:56.780Z,29.63
2018-10-18T12:26:01.143Z,30.63
2018-10-18T12:28:10.915Z,29.60
2018-10-18T12:30:24.788Z,29.83
2018-10-18T12:32:33.437Z,28.63
2018-10-18T12:34:45.671Z,29.50
2018-10-18T12:37:03.241Z,31.40
2018-10-18T12:39:09.156Z,30.07
2018-10-18T12:41:14.307Z,29.97
2018-10-18T12:43:19.914Z,31.97
2018-10-18T12:45:26.036Z,28.27
2018-10-18T12:47:30.346Z,28.00
2018-10-18T12:49:35.841Z,31.73
2018-10-18T12:51:43.743Z,33.83
2018-10-18T12:53:49.146Z,32.37
2018-10-18T12:55:53.382Z,36.80
2018-10-18T12:57:59.154Z,35.37
2018-10-18T13:00:04.323Z,32.97
2018-10-18T13:02:11.231Z,34.13
2018-10-18T13:04:16.465Z,35.10
2018-10-18T13:06:21.942Z,33.70
2018-10-18T13:08:29.068Z,33.30
2018-10-18T13:10:37.211Z,34.70
2018-10-18T13:12:42.425Z,37.13
2018-10-18T13:14:47.325Z,37.07
2018-10-18T13:16:52.764Z,36.33
2018-10-18T13:18:58.584Z,35.60
2018-10-18T13:21:03.687Z,36.23
2018-10-18T13:23:10.388Z,37.00
2018-10-18T13:25:16.896Z,37.17
2018-10-18T13:27:21.281Z,34.80
2018-10-18T13:29:26.842Z,35.80
2018-10-18T13:31:31.325Z,35.60
2018-10-18T13:33:41.123Z,35.23
2018-10-18T13:35:48.656Z,35.70
2018-10-18T13:37:54.441Z,36.80
2018-10-18T13:39:59.239Z,34.30
2018-10-18T13:42:05.139Z,35.63
2018-10-18T13:44:10.902Z,35.20
2018-10-18T13:46:16.517Z,33.90
2018-10-18T13:48:22.166Z,34.10
2018-10-18T13:50:27.805Z,35.07
2018-10-18T13:52:33.486Z,34.30
2018-10-18T13:54:39.552Z,33.13
2018-10-18T13:56:43.836Z,32.20
2018-10-18T13:58:49.229Z,34.73
2018-10-18T14:00:54.558Z,34.17
2018-10-18T14:03:01.852Z,34.07
2018-10-18T14:05:08.353Z,31.83
2018-10-18T14:07:14.450Z,34.33
2018-10-18T14:09:18.597Z,31.50
2018-10-18T14:11:24.478Z,31.87
2018-10-18T14:13:29.719Z,33.40
2018-10-18T14:15:35.856Z,31.30
2018-10-18T14:17:42.651Z,30.50
2018-10-18T14:19:51.301Z,33.27
2018-10-18T14:22:00.425Z,31.67
2018-10-18T14:24:06.381Z,29.90
2018-10-18T14:26:10.749Z,30.17
2018-10-18T14:28:16.762Z,31.40
2018-10-18T14:30:23.847Z,30.10
2018-10-18T14:32:29.429Z,29.33
2018-10-18T14:34:38.404Z,31.47
2018-10-18T14:36:43.956Z,29.73
2018-10-18T14:38:48.437Z,28.37
2018-10-18T14:40:53.980Z,28.40
2018-10-18T14:42:59.828Z,27.40
2018-10-18T14:45:04.904Z,28.03
2018-10-18T14:47:11.810Z,28.27
2018-10-18T14:49:17.526Z,26.80
2018-10-18T14:51:23.429Z,27.17
2018-10-18T14:53:30.542Z,29.40
2018-10-18T14:55:35.473Z,26.33
2018-10-18T14:57:41.813Z,28.83
2018-10-18T14:59:46.255Z,27.40
2018-10-18T15:01:50.689Z,27.17
2018-10-18T15:03:54.930Z,29.20
2018-10-18T15:05:59.988Z,27.83
2018-10-18T15:08:05.988Z,27.93
2018-10-18T15:10:11.632Z,28.67
2018-10-18T15:12:16.442Z,27.67
2018-10-18T15:14:26.850Z,29.60
2018-10-18T15:16:31.199Z,26.83
2018-10-18T15:18:36.585Z,28.37
2018-10-18T15:20:49.448Z,27.83
2018-10-18T15:22:55.495Z,29.10
2018-10-18T15:25:00.619Z,28.67
2018-10-18T15:27:05.480Z,28.73
2018-10-18T15:29:09.782Z,28.67
2018-10-18T15:31:14.831Z,28.80
2018-10-18T15:33:20.340Z,30.23
2018-10-18T15:35:26.314Z,30.73
2018-10-18T15:37:30.845Z,29.87
2018-10-18T15:39:37.394Z,29.80
2018-10-18T15:41:43.019Z,29.03
2018-10-18T15:43:47.304Z,31.37
2018-10-18T15:45:53.721Z,31.13
2018-10-18T15:47:57.995Z,31.27
2018-10-18T15:50:02.212Z,30.07
2018-10-18T15:52:06.679Z,30.17
2018-10-18T15:54:10.974Z,30.63
2018-10-18T15:56:15.528Z,30.30
2018-10-18T15:58:21.934Z,29.53
2018-10-18T16:00:29.014Z,32.40
2018-10-18T16:02:34.748Z,30.90
2018-10-18T16:04:39.920Z,30.67
2018-10-18T16:06:45.491Z,30.87
2018-10-18T16:08:50.779Z,29.60
2018-10-18T16:10:57.260Z,31.70
2018-10-18T16:13:01.590Z,29.97
2018-10-18T16:15:07.147Z,29.37
2018-10-18T16:17:12.500Z,30.73
2018-10-18T16:19:17.094Z,29.83
2018-10-18T16:21:21.598Z,29.60
2018-10-18T16:23:27.003Z,29.37
2018-10-18T16:25:32.386Z,29.30
2018-10-18T16:27:36.650Z,27.67
2018-10-18T16:29:42.291Z,29.17
2018-10-18T16:31:47.191Z,28.97
2018-10-18T16:34:01.213Z,28.67
2018-10-18T16:36:07.315Z,28.63
2018-10-18T16:40:31.098Z,28.07
2018-10-18T16:42:37.138Z,29.13
2018-10-18T16:44:43.232Z,28.60
2018-10-18T16:46:47.584Z,26.97
2018-10-18T16:48:52.320Z,27.17
2018-10-18T16:50:56.742Z,27.63
2018-10-18T16:53:01.739Z,26.87
2018-10-18T16:55:06.876Z,27.63
2018-10-18T16:57:12.711Z,25.93
2018-10-18T16:59:17.521Z,27.00
2018-10-18T17:01:23.325Z,26.93
2018-10-18T17:03:28.103Z,27.47
2018-10-18T17:05:35.031Z,28.23
2018-10-18T17:07:40.767Z,27.23
2018-10-18T17:09:46.519Z,28.40
2018-10-18T17:11:51.594Z,27.67
2018-10-18T17:13:57.327Z,28.63
2018-10-18T17:16:03.294Z,27.30
2018-10-18T17:18:09.154Z,28.17
2018-10-18T17:20:17.752Z,29.30
2018-10-18T17:22:24.314Z,27.50
2018-10-18T17:24:29.708Z,27.93
2018-10-18T17:26:36.106Z,28.67
2018-10-18T17:28:42.301Z,29.83
2018-10-18T17:30:52.588Z,29.10
2018-10-18T17:32:58.098Z,28.00
2018-10-18T17:35:02.651Z,28.43
2018-10-18T17:37:07.121Z,29.20
2018-10-18T17:39:12.223Z,28.03
2018-10-18T17:41:18.950Z,29.13
2018-10-18T17:43:24.834Z,28.63
2018-10-18T17:45:34.142Z,29.97
2018-10-18T17:47:39.507Z,29.20
2018-10-18T17:49:44.433Z,30.37
2018-10-18T17:51:49.249Z,31.10
2018-10-18T17:53:53.694Z,30.17
2018-10-18T17:56:01.118Z,30.47
2018-10-18T17:58:06.762Z,30.87
2018-10-18T18:00:23.266Z,31.63
2018-10-18T18:02:27.624Z,30.43
2018-10-18T18:04:34.293Z,30.20
2018-10-18T18:06:39.643Z,31.50
2018-10-18T18:08:44.018Z,31.10
2018-10-18T18:10:49.945Z,31.60
2018-10-18T18:12:54.507Z,31.03
2018-10-18T18:14:58.963Z,33.10
2018-10-18T18:17:04.150Z,31.23
2018-10-18T18:19:08.564Z,32.43
2018-10-18T18:21:16.735Z,30.57
2018-10-18T18:23:22.365Z,29.63
2018-10-18T18:25:30.006Z,29.50
2018-10-18T18:27:35.159Z,29.80
2018-10-18T18:29:42.040Z,29.83
2018-10-18T18:31:48.908Z,30.63
2018-10-18T18:33:58.690Z,30.17
2018-10-18T18:36:06.003Z,29.63
2018-10-18T18:38:10.494Z,29.60
2018-10-18T18:40:15.455Z,29.87
2018-10-18T18:42:19.780Z,28.47
2018-10-18T18:44:26.042Z,27.80
2018-10-18T18:46:31.356Z,27.93
2018-10-18T18:48:38.541Z,28.13
2018-10-18T18:50:44.856Z,29.20
2018-10-18T18:52:49.855Z,29.83
2018-10-18T18:54:56.225Z,28.67
2018-10-18T18:57:01.267Z,29.60
2018-10-18T18:59:06.197Z,27.43
2018-10-18T19:01:11.585Z,28.43
2018-10-18T19:03:19.900Z,28.73
2018-10-18T19:05:26.805Z,29.27
2018-10-18T19:07:33.153Z,28.87
2018-10-18T19:09:40.516Z,29.20
2018-10-18T19:11:45.727Z,28.77
2018-10-18T19:13:50.776Z,30.80
2018-10-18T19:15:56.166Z,30.23
2018-10-18T19:18:02.236Z,28.40
2018-10-18T19:20:09.568Z,27.60
2018-10-18T19:22:16.830Z,28.57
2018-10-18T19:24:24.021Z,28.67
2018-10-18T19:26:29.407Z,27.80
2018-10-18T19:28:35.850Z,27.53
2018-10-18T19:30:41.078Z,27.07
2018-10-18T19:32:48.601Z,26.33
2018-10-18T19:34:54.529Z,26.93
2018-10-18T19:37:01.609Z,27.90
2018-10-18T19:39:09.155Z,26.87
2018-10-18T19:41:15.151Z,25.63
2018-10-18T19:43:23.105Z,26.27
2018-10-18T19:45:58.871Z,25.27
2018-10-18T19:48:04.290Z,28.40
2018-10-18T19:50:10.400Z,25.40
2018-10-18T19:52:16.932Z,25.63
2018-10-18T19:54:24.743Z,24.43
2018-10-18T19:56:30.224Z,23.30
2018-10-18T19:58:38.030Z,22.00
2018-10-18T20:00:42.509Z,23.07
2018-10-18T20:02:48.505Z,22.27
2018-10-18T20:05:43.908Z,21.27
2018-10-18T20:07:50.630Z,21.47
2018-10-18T20:09:55.952Z,21.57
2018-10-18T20:12:03.958Z,21.40
2018-10-18T20:14:11.245Z,19.63
2018-10-18T20:16:17.920Z,19.43
2018-10-18T20:18:23.052Z,18.60
2018-10-18T20:20:29.026Z,17.67
2018-10-18T20:22:36.302Z,17.50
2018-10-18T20:24:42.231Z,16.97
2018-10-18T20:26:48.600Z,16.60
2018-10-18T20:28:53.006Z,15.00
2018-10-18T20:30:57.287Z,15.00
2018-10-18T20:33:02.498Z,15.10
2018-10-18T20:35:11.837Z,14.77
2018-10-18T20:37:19.135Z,14.37
2018-10-18T20:39:26.105Z,14.07
2018-10-18T20:41:32.574Z,12.60
2018-10-18T20:43:41.077Z,13.07
2018-10-18T20:45:46.693Z,12.57
2018-10-18T20:47:51.899Z,12.53
2018-10-18T20:49:57.541Z,11.63
2018-10-18T20:52:08.468Z,11.13
2018-10-18T20:54:14.037Z,11.37
2018-10-18T20:56:22.232Z,11.07
2018-10-18T20:58:36.187Z,11.20
2018-10-18T21:00:42.995Z,10.90
2018-10-18T21:02:50.737Z,12.00
2018-10-18T21:04:57.838Z,10.90
2018-10-18T21:07:04.648Z,11.27
2018-10-18T21:09:12.091Z,10.50
2018-10-18T21:11:17.675Z,10.53
2018-10-18T21:13:24.244Z,10.47
2018-10-18T21:15:31.056Z,9.83
2018-10-18T21:17:35.375Z,9.53
2018-10-18T21:19:40.129Z,8.53
2018-10-18T21:21:45.181Z,7.77
2018-10-18T21:23:49.808Z,8.57
2018-10-18T21:25:55.212Z,7.97
2018-10-18T21:28:00.047Z,7.30
2018-10-18T21:30:05.442Z,7.00
2018-10-18T21:32:09.798Z,6.73
2018-10-18T21:34:14.558Z,6.73
2018-10-18T21:36:18.992Z,5.87
2018-10-18T21:38:23.518Z,5.83
2018-10-18T21:40:29.761Z,5.87
2018-10-18T21:42:34.382Z,5.97
2018-10-18T21:44:38.830Z,6.37
2018-10-18T21:46:46.804Z,5.87
2018-10-18T21:48:51.793Z,5.87
2018-10-18T21:50:56.895Z,6.37
2018-10-18T21:53:04.226Z,5.37
2018-10-18T21:55:10.411Z,6.50
2018-10-18T21:57:15.438Z,6.20
2018-10-18T21:59:22.935Z,5.57
2018-10-18T22:01:27.222Z,6.10
2018-10-18T22:03:33.410Z,5.90
2018-10-18T22:05:37.995Z,6.10
2018-10-18T22:07:43.274Z,5.70
2018-10-18T22:09:47.540Z,5.87
2018-10-18T22:11:53.587Z,5.80
2018-10-18T22:13:58.837Z,5.43
2018-10-18T22:16:03.049Z,5.27
2018-10-18T22:18:08.035Z,5.27
2018-10-18T22:20:13.342Z,4.67
2018-10-18T22:22:18.289Z,4.87
2018-10-18T22:24:22.867Z,5.50
2018-10-18T22:26:27.227Z,5.37
2018-10-18T22:28:32.245Z,5.47
2018-10-18T22:30:36.837Z,5.70
2018-10-18T22:32:41.242Z,5.40
2018-10-18T22:34:46.227Z,5.17
2018-10-18T22:36:50.624Z,5.73
2018-10-18T22:38:56.740Z,5.50
2018-10-18T22:41:01.400Z,6.03
2018-10-18T22:43:07.838Z,5.70
2018-10-18T22:45:15.012Z,5.70
2018-10-18T22:47:19.883Z,5.77
2018-10-18T22:49:27.470Z,5.90
2018-10-18T22:51:31.769Z,5.97
2018-10-18T22:53:36.399Z,5.47
2018-10-18T22:55:41.892Z,5.60
2018-10-18T22:57:46.564Z,5.70
2018-10-18T22:59:50.779Z,6.13
2018-10-18T23:01:55.057Z,5.63
2018-10-18T23:03:59.420Z,6.23
2018-10-18T23:06:05.549Z,5.80
2018-10-18T23:08:09.686Z,5.93
2018-10-18T23:10:15.497Z,6.43
2018-10-18T23:12:20.514Z,6.37
2018-10-18T23:14:28.498Z,6.50
2018-10-18T23:16:33.318Z,5.90
2018-10-18T23:18:37.626Z,6.50
2018-10-18T23:20:43.260Z,6.40
2018-10-18T23:22:47.661Z,6.70
2018-10-18T23:24:51.878Z,6.60
2018-10-18T23:26:56.058Z,6.63
2018-10-18T23:29:00.286Z,6.37
2018-10-18T23:31:04.759Z,7.17
2018-10-18T23:33:09.908Z,7.00
2018-10-18T23:35:14.135Z,7.17
2018-10-18T23:37:18.433Z,7.87
2018-10-18T23:39:24.076Z,7.83
2018-10-18T23:41:28.412Z,7.80
2018-10-18T23:43:33.159Z,7.37
2018-10-18T23:45:38.443Z,7.60
2018-10-18T23:47:43.278Z,8.27
2018-10-18T23:49:47.478Z,7.80
2018-10-18T23:51:52.377Z,8.70
2018-10-18T23:53:56.642Z,8.50
2018-10-18T23:56:00.787Z,8.40
2018-10-18T23:58:05.647Z,9.23
